createdAt,value
2022-09-30T00:01:05.262Z,11.55
2022-09-30T00:03:32.701Z,10.25
2022-09-30T00:06:08.722Z,12.18
2022-09-30T00:08:38.349Z,9.80
2022-09-30T00:11:09.351Z,12.85
2022-09-30T00:13:40.085Z,10.48
2022-09-30T00:16:08.691Z,9.90
2022-09-30T00:18:36.679Z,13.68
2022-09-30T00:21:05.142Z,13.93
2022-09-30T00:23:32.751Z,11.50
2022-09-30T00:26:05.559Z,11.90
2022-09-30T00:28:33.285Z,9.05
2022-09-30T00:31:02.788Z,14.82
2022-09-30T00:33:30.305Z,12.45
2022-09-30T00:35:57.906Z,13.38
2022-09-30T00:38:25.365Z,11.55
2022-09-30T00:40:52.864Z,9.90
2022-09-30T00:43:40.822Z,9.02
2022-09-30T00:46:18.008Z,6.85
2022-09-30T00:48:50.865Z,7.53
2022-09-30T00:51:19.061Z,9.57
2022-09-30T00:53:54.358Z,7.97
2022-09-30T00:56:26.464Z,8.73
2022-09-30T00:59:09.457Z,9.10
2022-09-30T01:01:41.059Z,6.32
2022-09-30T01:04:15.520Z,10.57
2022-09-30T01:09:12.405Z,7.60
2022-09-30T01:11:40.799Z,9.27
2022-09-30T01:14:19.134Z,7.75
2022-09-30T01:16:58.749Z,10.32
2022-09-30T01:19:58.152Z,7.40
2022-09-30T01:22:42.535Z,9.32
2022-09-30T01:25:18.796Z,9.27
2022-09-30T01:28:07.533Z,7.05
2022-09-30T01:31:07.899Z,7.63
2022-09-30T01:34:11.395Z,6.80
2022-09-30T01:36:54.846Z,8.95
2022-09-30T01:39:34.122Z,9.00
2022-09-30T01:42:19.436Z,10.43
2022-09-30T01:45:03.527Z,7.88
2022-09-30T01:47:44.413Z,7.93
2022-09-30T01:50:33.719Z,6.68
2022-09-30T01:53:21.869Z,6.35
2022-09-30T01:56:01.793Z,8.77
2022-09-30T01:58:45.613Z,6.45
2022-09-30T02:01:20.623Z,6.32
2022-09-30T02:03:56.760Z,6.97
2022-09-30T02:06:34.579Z,7.07
2022-09-30T02:09:13.250Z,7.82
2022-09-30T02:11:42.730Z,6.57
2022-09-30T02:14:20.351Z,7.82
2022-09-30T02:16:54.506Z,7.80
2022-09-30T02:19:34.798Z,9.25
2022-09-30T02:22:09.107Z,9.48
2022-09-30T02:24:38.024Z,6.95
2022-09-30T02:27:23.112Z,6.35
2022-09-30T02:29:56.777Z,6.60
2022-09-30T02:32:32.647Z,8.02
2022-09-30T02:35:10.057Z,7.03
2022-09-30T02:37:42.058Z,8.45
2022-09-30T02:40:32.711Z,5.63
2022-09-30T02:43:00.320Z,6.28
2022-09-30T02:45:29.222Z,7.60
2022-09-30T02:48:23.252Z,10.38
2022-09-30T02:51:03.895Z,12.55
2022-09-30T02:53:48.289Z,5.95
2022-09-30T02:56:47.727Z,4.90
2022-09-30T02:59:15.626Z,6.22
2022-09-30T03:01:44.400Z,7.93
2022-09-30T03:04:16.034Z,5.65
2022-09-30T03:06:43.780Z,7.13
2022-09-30T03:09:11.498Z,6.25
2022-09-30T03:11:39.076Z,5.22
2022-09-30T03:14:24.002Z,5.05
2022-09-30T03:16:57.442Z,7.93
2022-09-30T03:19:46.601Z,5.70
2022-09-30T03:22:47.718Z,4.90
2022-09-30T03:25:34.247Z,7.50
2022-09-30T03:28:18.936Z,5.72
2022-09-30T03:31:12.104Z,5.85
2022-09-30T03:34:08.790Z,6.75
2022-09-30T03:36:46.738Z,6.60
2022-09-30T03:39:33.134Z,8.18
2022-09-30T03:42:20.653Z,6.15
2022-09-30T03:45:12.898Z,10.98
2022-09-30T03:47:54.423Z,5.03
2022-09-30T03:50:24.471Z,6.22
2022-09-30T03:52:52.549Z,9.90
2022-09-30T03:55:22.499Z,7.80
2022-09-30T03:57:51.279Z,6.45
2022-09-30T04:00:19.292Z,6.20
2022-09-30T04:02:46.790Z,5.88
2022-09-30T04:05:14.330Z,6.20
2022-09-30T04:07:41.800Z,8.40
2022-09-30T04:10:09.781Z,9.80
2022-09-30T04:12:37.380Z,6.60
2022-09-30T04:15:06.187Z,7.00
2022-09-30T04:17:33.661Z,6.63
2022-09-30T04:20:01.279Z,8.70
2022-09-30T04:22:28.759Z,8.90
2022-09-30T04:24:56.272Z,4.82
2022-09-30T04:27:23.753Z,6.18
2022-09-30T04:29:51.236Z,8.68
2022-09-30T04:32:18.687Z,6.80
2022-09-30T04:34:46.174Z,5.28
2022-09-30T04:37:14.201Z,5.72
2022-09-30T04:39:41.894Z,5.47
2022-09-30T04:42:09.433Z,8.38
2022-09-30T04:44:37.071Z,6.22
2022-09-30T04:47:04.751Z,5.28
2022-09-30T04:49:32.227Z,6.07
2022-09-30T04:51:59.699Z,6.97
2022-09-30T04:54:27.197Z,10.85
2022-09-30T04:56:54.665Z,5.63
2022-09-30T04:59:22.299Z,7.28
2022-09-30T05:01:49.920Z,6.15
2022-09-30T05:04:17.645Z,5.70
2022-09-30T05:06:45.145Z,9.90
2022-09-30T05:09:12.654Z,6.18
2022-09-30T05:11:42.221Z,8.20
2022-09-30T05:14:10.011Z,8.38
2022-09-30T05:16:37.795Z,8.60
2022-09-30T05:19:05.386Z,11.65
2022-09-30T05:21:32.902Z,7.45
2022-09-30T05:24:00.446Z,9.75
2022-09-30T05:26:28.185Z,10.40
2022-09-30T05:28:55.682Z,8.48
2022-09-30T05:31:23.242Z,13.60
2022-09-30T05:33:54.566Z,8.80
2022-09-30T05:36:24.786Z,9.43
2022-09-30T05:38:52.926Z,9.23
2022-09-30T05:41:21.102Z,8.30
2022-09-30T05:43:49.595Z,11.73
2022-09-30T05:46:19.121Z,11.48
2022-09-30T05:48:47.351Z,8.38
2022-09-30T05:51:14.896Z,9.45
2022-09-30T05:53:42.521Z,11.80
2022-09-30T05:56:11.503Z,11.32
2022-09-30T05:58:40.622Z,15.05
2022-09-30T06:01:14.255Z,15.15
2022-09-30T06:03:46.672Z,9.48
2022-09-30T06:06:15.584Z,11.13
2022-09-30T06:08:43.797Z,13.07
2022-09-30T06:11:23.485Z,14.20
2022-09-30T06:13:50.999Z,10.23
2022-09-30T06:16:19.943Z,14.30
2022-09-30T06:18:47.508Z,10.13
2022-09-30T06:21:17.595Z,12.40
2022-09-30T06:23:45.399Z,12.48
2022-09-30T06:26:14.364Z,11.95
2022-09-30T06:28:42.709Z,13.02
2022-09-30T06:31:11.436Z,9.48
2022-09-30T06:33:39.105Z,11.93
2022-09-30T06:36:07.213Z,13.93
2022-09-30T06:38:37.652Z,12.00
2022-09-30T06:41:05.888Z,9.50
2022-09-30T06:43:41.502Z,12.40
2022-09-30T06:46:30.331Z,14.02
2022-09-30T06:49:10.104Z,14.95
2022-09-30T06:51:39.958Z,13.05
2022-09-30T06:54:07.950Z,17.05
2022-09-30T06:56:35.563Z,25.40
2022-09-30T06:59:03.199Z,19.55
2022-09-30T07:01:30.810Z,16.63
2022-09-30T07:03:58.847Z,15.80
2022-09-30T07:06:27.445Z,17.45
2022-09-30T07:08:55.179Z,13.07
2022-09-30T07:11:24.177Z,12.05
2022-09-30T07:13:51.687Z,11.95
2022-09-30T07:16:21.300Z,13.65
2022-09-30T07:18:48.929Z,12.02
2022-09-30T07:21:17.164Z,14.48
2022-09-30T07:23:47.486Z,14.07
2022-09-30T07:26:23.598Z,14.65
2022-09-30T07:28:52.349Z,14.10
2022-09-30T07:31:32.318Z,16.42
2022-09-30T07:34:01.803Z,14.98
2022-09-30T07:36:33.254Z,17.38
2022-09-30T07:39:06.138Z,23.23
2022-09-30T07:41:36.908Z,18.02
2022-09-30T07:44:06.754Z,19.30
2022-09-30T07:46:38.550Z,16.73
2022-09-30T07:49:07.014Z,15.15
2022-09-30T07:51:39.499Z,17.58
2022-09-30T07:54:09.092Z,18.27
2022-09-30T07:59:28.291Z,17.80
2022-09-30T08:01:56.385Z,16.52
2022-09-30T08:04:25.835Z,16.27
2022-09-30T08:07:00.571Z,14.68
2022-09-30T08:09:30.660Z,12.45
2022-09-30T08:11:59.072Z,15.55
2022-09-30T08:14:28.797Z,14.00
2022-09-30T08:16:58.270Z,13.13
2022-09-30T08:19:26.662Z,13.82
2022-09-30T08:21:55.240Z,13.77
2022-09-30T08:24:24.025Z,15.55
2022-09-30T08:26:52.647Z,13.85
2022-09-30T08:29:35.653Z,18.60
2022-09-30T08:32:08.239Z,12.30
2022-09-30T08:34:36.108Z,13.57
2022-09-30T08:37:09.072Z,13.68
2022-09-30T08:39:38.301Z,11.38
2022-09-30T08:42:38.333Z,11.25
2022-09-30T08:45:19.480Z,10.85
2022-09-30T08:48:05.474Z,11.35
2022-09-30T08:50:47.227Z,9.52
2022-09-30T08:53:23.986Z,8.82
2022-09-30T08:55:52.473Z,6.45
2022-09-30T08:58:28.671Z,9.00
2022-09-30T09:01:10.653Z,9.18
2022-09-30T09:03:40.171Z,7.60
2022-09-30T09:06:33.824Z,5.93
2022-09-30T09:09:20.416Z,8.73
2022-09-30T09:12:00.911Z,6.57
2022-09-30T09:14:34.188Z,5.40
2022-09-30T09:17:20.118Z,6.20
2022-09-30T09:19:54.633Z,11.80
2022-09-30T09:22:24.819Z,5.88
2022-09-30T09:24:55.205Z,4.90
2022-09-30T09:27:47.873Z,6.68
2022-09-30T09:30:22.295Z,5.57
2022-09-30T09:32:57.189Z,5.00
2022-09-30T09:35:54.117Z,3.38
2022-09-30T09:38:36.029Z,3.63
2022-09-30T09:41:21.801Z,3.72
2022-09-30T09:43:52.713Z,3.75
2022-09-30T09:46:49.075Z,2.67
2022-09-30T09:49:20.709Z,6.15
2022-09-30T09:52:00.282Z,1.92
2022-09-30T09:54:31.142Z,6.85
2022-09-30T09:57:09.329Z,2.33
2022-09-30T09:59:37.751Z,2.55
2022-09-30T10:02:24.121Z,2.15
2022-09-30T10:04:59.962Z,4.75
2022-09-30T10:07:29.945Z,3.28
2022-09-30T10:10:23.376Z,2.33
2022-09-30T10:12:51.448Z,1.98
2022-09-30T10:15:24.348Z,3.78
2022-09-30T10:18:00.843Z,4.57
2022-09-30T10:20:33.511Z,4.88
2022-09-30T10:23:04.217Z,2.13
2022-09-30T10:25:32.056Z,3.95
2022-09-30T10:28:05.033Z,1.75
2022-09-30T10:30:44.357Z,1.42
2022-09-30T10:33:20.742Z,3.22
2022-09-30T10:36:04.186Z,3.70
2022-09-30T10:38:34.644Z,1.15
2022-09-30T10:41:04.093Z,1.88
2022-09-30T10:43:45.216Z,1.42
2022-09-30T10:46:25.687Z,1.15
2022-09-30T10:48:55.853Z,1.20
2022-09-30T10:51:28.137Z,1.33
2022-09-30T10:53:56.865Z,1.17
2022-09-30T10:56:37.928Z,1.42
2022-09-30T10:59:15.909Z,1.45
2022-09-30T11:01:55.205Z,3.22
2022-09-30T11:04:33.232Z,0.40
2022-09-30T11:07:22.703Z,1.23
2022-09-30T11:10:04.908Z,2.00
2022-09-30T11:16:04.019Z,2.08
2022-09-30T11:19:17.962Z,1.67
2022-09-30T11:22:01.603Z,2.17
2022-09-30T11:24:38.060Z,1.15
2022-09-30T11:27:11.397Z,1.48
2022-09-30T11:30:00.504Z,3.72
2022-09-30T11:32:59.135Z,2.15
2022-09-30T11:35:52.594Z,1.60
2022-09-30T11:38:38.075Z,2.22
2022-09-30T11:41:22.838Z,2.53
2022-09-30T11:44:05.587Z,3.15
2022-09-30T11:46:50.630Z,3.47
2022-09-30T11:49:39.902Z,3.70
2022-09-30T11:52:28.991Z,1.75
2022-09-30T11:55:33.633Z,2.58
2022-09-30T11:58:36.566Z,1.63
2022-09-30T12:01:26.433Z,1.73
2022-09-30T12:04:14.023Z,2.17
2022-09-30T12:07:07.407Z,1.65
2022-09-30T12:09:41.939Z,2.50
2022-09-30T12:12:16.560Z,5.18
2022-09-30T12:15:10.846Z,0.77
2022-09-30T12:17:50.322Z,1.48
2022-09-30T12:20:29.099Z,2.63
2022-09-30T12:23:06.468Z,2.65
2022-09-30T12:25:41.958Z,2.50
2022-09-30T12:28:51.336Z,2.28
2022-09-30T12:31:29.315Z,1.98
2022-09-30T12:34:32.023Z,3.83
2022-09-30T12:37:36.455Z,4.70
2022-09-30T12:40:13.666Z,2.35
2022-09-30T12:43:10.387Z,2.95
2022-09-30T12:46:05.992Z,5.07
2022-09-30T12:48:44.854Z,6.60
2022-09-30T12:51:24.001Z,3.97
2022-09-30T12:53:57.410Z,4.25
2022-09-30T12:56:30.318Z,2.95
2022-09-30T12:59:00.559Z,3.50
2022-09-30T13:01:35.949Z,3.65
2022-09-30T13:04:03.349Z,5.70
2022-09-30T13:06:46.414Z,3.08
2022-09-30T13:09:17.064Z,4.32
2022-09-30T13:11:49.201Z,4.13
2022-09-30T13:14:26.231Z,2.50
2022-09-30T13:17:09.254Z,3.58
2022-09-30T13:19:40.994Z,2.35
2022-09-30T13:22:20.931Z,4.68
2022-09-30T13:25:00.715Z,2.80
2022-09-30T13:27:35.464Z,2.88
2022-09-30T13:30:25.690Z,3.55
2022-09-30T13:32:57.701Z,2.45
2022-09-30T13:38:24.396Z,1.63
2022-09-30T13:41:04.129Z,1.77
2022-09-30T13:43:31.748Z,1.60
2022-09-30T13:46:05.747Z,2.17
2022-09-30T13:48:39.672Z,3.22
2022-09-30T13:51:14.592Z,2.22
2022-09-30T13:53:51.191Z,1.38
2022-09-30T13:56:26.154Z,3.25
2022-09-30T13:59:13.351Z,1.77
2022-09-30T14:01:55.052Z,3.80
2022-09-30T14:04:47.539Z,1.40
2022-09-30T14:10:11.400Z,0.63
2022-09-30T14:13:15.560Z,2.63
2022-09-30T14:16:07.496Z,2.85
2022-09-30T14:19:07.714Z,1.63
2022-09-30T14:21:43.713Z,2.22
2022-09-30T14:24:17.638Z,2.00
2022-09-30T14:27:04.746Z,3.72
2022-09-30T14:30:03.167Z,1.90
2022-09-30T14:32:52.757Z,1.10
2022-09-30T14:35:28.297Z,3.78
2022-09-30T14:38:00.321Z,2.25
2022-09-30T14:40:31.534Z,6.00
2022-09-30T14:43:05.103Z,3.27
2022-09-30T14:45:35.585Z,5.45
2022-09-30T14:48:09.204Z,3.47
2022-09-30T14:50:54.125Z,4.25
2022-09-30T14:53:34.041Z,4.32
2022-09-30T14:56:03.007Z,5.00
2022-09-30T14:58:33.190Z,5.40
2022-09-30T15:01:04.751Z,3.50
2022-09-30T15:03:35.216Z,4.78
2022-09-30T15:06:03.184Z,4.50
2022-09-30T15:08:30.774Z,2.90
2022-09-30T15:10:58.354Z,4.35
2022-09-30T15:13:31.831Z,3.80
2022-09-30T15:15:59.623Z,4.18
2022-09-30T15:18:28.632Z,6.45
2022-09-30T15:21:00.631Z,5.00
2022-09-30T15:23:34.371Z,3.92
2022-09-30T15:26:02.169Z,4.68
2022-09-30T15:28:29.849Z,5.28
2022-09-30T15:30:59.787Z,5.75
2022-09-30T15:33:31.808Z,4.95
2022-09-30T15:36:19.778Z,6.95
2022-09-30T15:38:51.214Z,7.30
2022-09-30T15:41:19.430Z,6.05
2022-09-30T15:43:54.481Z,7.50
2022-09-30T15:46:31.935Z,5.68
2022-09-30T15:49:02.639Z,6.75
2022-09-30T15:51:37.132Z,4.10
2022-09-30T15:54:28.668Z,6.95
2022-09-30T15:56:56.392Z,5.18
2022-09-30T15:59:23.877Z,4.35
2022-09-30T16:01:53.119Z,9.45
2022-09-30T16:04:22.811Z,3.45
2022-09-30T16:06:54.328Z,5.47
2022-09-30T16:09:24.647Z,4.38
2022-09-30T16:12:02.931Z,6.15
2022-09-30T16:14:52.328Z,5.13
2022-09-30T16:17:32.606Z,7.75
2022-09-30T16:20:21.234Z,3.33
2022-09-30T16:22:49.121Z,4.93
2022-09-30T16:25:32.699Z,3.65
2022-09-30T16:28:14.765Z,4.00
2022-09-30T16:30:45.184Z,5.28
2022-09-30T16:33:15.471Z,3.83
2022-09-30T16:35:44.891Z,4.68
2022-09-30T16:38:17.193Z,4.70
2022-09-30T16:40:44.721Z,5.65
2022-09-30T16:43:12.538Z,4.07
2022-09-30T16:45:42.361Z,3.80
2022-09-30T16:48:16.615Z,4.28
2022-09-30T16:51:03.598Z,4.32
2022-09-30T16:53:31.150Z,3.95
2022-09-30T16:55:58.792Z,2.83
2022-09-30T16:58:26.261Z,6.63
2022-09-30T17:00:54.428Z,6.13
2022-09-30T17:03:22.633Z,6.80
2022-09-30T17:05:52.765Z,4.97
2022-09-30T17:08:21.860Z,4.30
2022-09-30T17:10:50.055Z,3.55
2022-09-30T17:13:18.986Z,4.50
2022-09-30T17:15:51.018Z,6.60
2022-09-30T17:18:19.287Z,6.82
2022-09-30T17:20:52.366Z,3.97
2022-09-30T17:23:25.194Z,5.78
2022-09-30T17:25:53.701Z,5.75
2022-09-30T17:28:22.036Z,7.20
2022-09-30T17:30:50.416Z,6.47
2022-09-30T17:33:19.796Z,3.92
2022-09-30T17:35:59.293Z,4.55
2022-09-30T17:38:27.151Z,3.42
2022-09-30T17:41:12.485Z,7.10
2022-09-30T17:43:40.174Z,3.47
2022-09-30T17:46:07.729Z,5.97
2022-09-30T17:48:35.446Z,4.72
2022-09-30T17:51:02.890Z,2.80
2022-09-30T17:53:30.866Z,7.10
2022-09-30T17:56:10.153Z,6.40
2022-09-30T17:58:38.151Z,9.02
2022-09-30T18:01:09.732Z,4.70
2022-09-30T18:03:38.074Z,7.68
2022-09-30T18:06:05.594Z,5.72
2022-09-30T18:08:33.360Z,6.78
2022-09-30T18:11:00.959Z,7.65
2022-09-30T18:13:29.122Z,6.60
2022-09-30T18:15:59.620Z,6.13
2022-09-30T18:18:27.094Z,3.78
2022-09-30T18:20:54.560Z,5.38
2022-09-30T18:23:22.085Z,6.03
2022-09-30T18:25:51.979Z,4.85
2022-09-30T18:28:19.507Z,4.15
2022-09-30T18:30:47.125Z,5.70
2022-09-30T18:33:17.257Z,5.32
2022-09-30T18:35:44.807Z,6.35
2022-09-30T18:38:14.790Z,5.30
2022-09-30T18:40:45.579Z,5.03
2022-09-30T18:43:15.004Z,3.35
2022-09-30T18:45:43.260Z,4.18
2022-09-30T18:48:11.215Z,6.07
2022-09-30T18:50:38.927Z,4.40
2022-09-30T18:53:09.750Z,6.38
2022-09-30T18:55:38.821Z,4.35
2022-09-30T18:58:06.854Z,5.05
2022-09-30T19:00:34.501Z,5.13
2022-09-30T19:03:01.987Z,4.30
2022-09-30T19:05:29.462Z,4.57
2022-09-30T19:07:57.023Z,3.60
2022-09-30T19:10:25.582Z,3.45
2022-09-30T19:12:53.150Z,3.45
2022-09-30T19:15:20.875Z,3.40
2022-09-30T19:17:50.630Z,4.22
2022-09-30T19:20:18.241Z,3.90
2022-09-30T19:22:46.775Z,8.95
2022-09-30T19:25:16.353Z,4.47
2022-09-30T19:27:43.948Z,3.65
2022-09-30T19:30:14.673Z,4.68
2022-09-30T19:32:42.280Z,4.22
2022-09-30T19:35:12.046Z,3.47
2022-09-30T19:37:56.501Z,5.10
2022-09-30T19:40:27.703Z,4.07
2022-09-30T19:42:56.264Z,4.97
2022-09-30T19:45:26.421Z,3.50
2022-09-30T19:47:54.446Z,3.20
2022-09-30T19:50:22.036Z,4.95
2022-09-30T19:52:56.842Z,3.22
2022-09-30T19:55:26.525Z,6.25
2022-09-30T19:57:54.357Z,4.22
2022-09-30T20:00:22.039Z,3.83
2022-09-30T20:02:50.174Z,6.13
2022-09-30T20:05:18.356Z,4.47
2022-09-30T20:07:45.929Z,2.92
2022-09-30T20:10:14.119Z,2.97
2022-09-30T20:12:42.663Z,2.53
2022-09-30T20:15:37.386Z,3.20
2022-09-30T20:18:05.117Z,4.72
2022-09-30T20:20:42.757Z,2.85
2022-09-30T20:23:10.240Z,4.07
2022-09-30T20:25:38.301Z,3.92
2022-09-30T20:28:06.686Z,5.00
2022-09-30T20:30:38.228Z,2.70
2022-09-30T20:33:05.960Z,4.38
2022-09-30T20:35:36.916Z,4.20
2022-09-30T20:38:05.243Z,2.80
2022-09-30T20:40:34.413Z,3.83
2022-09-30T20:43:03.987Z,2.17
2022-09-30T20:45:31.518Z,3.05
2022-09-30T20:47:59.057Z,8.18
2022-09-30T20:50:38.542Z,4.10
2022-09-30T20:53:09.437Z,2.53
2022-09-30T20:55:39.293Z,3.88
2022-09-30T20:58:08.910Z,2.40
2022-09-30T21:00:39.711Z,3.75
2022-09-30T21:03:09.908Z,3.25
2022-09-30T21:05:37.780Z,4.70
2022-09-30T21:08:07.312Z,3.63
2022-09-30T21:10:36.918Z,4.35
2022-09-30T21:13:10.118Z,6.18
2022-09-30T21:15:39.572Z,2.97
2022-09-30T21:18:07.408Z,2.72
2022-09-30T21:20:35.155Z,3.92
2022-09-30T21:23:03.124Z,3.78
2022-09-30T21:25:31.961Z,5.93
2022-09-30T21:27:59.637Z,3.67
2022-09-30T21:30:27.199Z,3.35
2022-09-30T21:32:55.024Z,5.55
2022-09-30T21:35:22.503Z,4.00
2022-09-30T21:37:50.455Z,5.68
2022-09-30T21:40:18.985Z,7.43
2022-09-30T21:42:46.550Z,4.22
2022-09-30T21:45:14.049Z,3.92
2022-09-30T21:47:44.715Z,3.63
2022-09-30T21:50:12.917Z,5.95
2022-09-30T21:52:40.407Z,3.63
2022-09-30T21:55:08.170Z,4.05
2022-09-30T21:57:35.676Z,4.47
2022-09-30T22:00:03.571Z,7.38
2022-09-30T22:02:31.369Z,4.63
2022-09-30T22:04:58.922Z,5.07
2022-09-30T22:07:27.712Z,4.13
2022-09-30T22:09:55.467Z,4.13
2022-09-30T22:12:23.317Z,4.65
2022-09-30T22:14:50.937Z,5.10
2022-09-30T22:17:18.430Z,7.35
2022-09-30T22:19:45.895Z,4.97
2022-09-30T22:22:13.371Z,8.68
2022-09-30T22:24:40.992Z,4.93
2022-09-30T22:27:09.038Z,7.10
2022-09-30T22:29:36.688Z,12.07
2022-09-30T22:32:04.184Z,7.05
2022-09-30T22:34:49.300Z,7.05
2022-09-30T22:37:34.063Z,6.90
2022-09-30T22:40:03.173Z,5.30
2022-09-30T22:42:30.718Z,7.78
2022-09-30T22:44:58.267Z,7.10
2022-09-30T22:47:27.596Z,8.80
2022-09-30T22:49:55.179Z,9.93
2022-09-30T22:52:22.693Z,5.22
2022-09-30T22:54:50.187Z,6.97
2022-09-30T22:57:17.669Z,9.73
2022-09-30T22:59:47.591Z,7.18
2022-09-30T23:02:16.081Z,5.88
2022-09-30T23:04:44.083Z,13.05
2022-09-30T23:07:11.569Z,8.88
2022-09-30T23:09:39.213Z,7.93
2022-09-30T23:12:06.726Z,7.45
2022-09-30T23:14:34.166Z,8.98
2022-09-30T23:17:01.675Z,7.80
2022-09-30T23:19:29.167Z,6.88
2022-09-30T23:21:56.933Z,10.85
2022-09-30T23:24:24.419Z,10.32
2022-09-30T23:26:51.881Z,8.15
2022-09-30T23:29:19.363Z,7.93
2022-09-30T23:31:46.894Z,9.60
2022-09-30T23:34:14.515Z,7.00
2022-09-30T23:36:41.964Z,6.22
2022-09-30T23:39:20.125Z,5.85
2022-09-30T23:41:49.047Z,8.52
2022-09-30T23:44:19.009Z,11.13
2022-09-30T23:47:02.284Z,9.05
2022-09-30T23:49:35.260Z,7.78
2022-09-30T23:52:11.923Z,10.57
2022-09-30T23:54:41.502Z,9.30
2022-09-30T23:57:09.931Z,7.38
2022-09-30T23:59:37.661Z,6.70
